Terminal Aerodrome Forecast
Issued by NWS Boston, MA

Home | Current Version | Previous Version | Text Only | Print | Product List | Glossary On
Versions: 1 2 3 4 5 6 7 8 9 10 11 12 13 14 15 16 17 18 19 20 21 22 23 24 25 26 27 28 29 30 31 32 33 34 35 36 37 38 39 40 41 42 43 44 45 46 47 48
000
FTUS41 KBOX 191129 CCA
TAFORH
TAF COR
KORH 191129Z 1912/2012 20006KT P6SM FEW250
     FM191400 20009G19KT P6SM SCT150
     FM191900 21013G26KT P6SM VCSH BKN050
     FM192100 21012G25KT P6SM -SHRA OVC025
     FM192300 21011KT 5SM -SHRA OVC015
     FM200100 22009KT 2SM -SHRA BR OVC008 WS020/21040KT
     FM200600 23011KT 1SM BR OVC003 WS020/23040KT
     FM200800 24010KT 1SM BR OVC003=

USA.gov is the U.S. government's official web portal to all federal, state and local government web resources and services.